createdAt,value
2023-05-01T00:00:52.877Z,34.70
2023-05-01T00:03:19.970Z,29.70
2023-05-01T00:05:47.755Z,26.50
2023-05-01T00:08:14.811Z,24.30
2023-05-01T00:10:41.788Z,23.80
2023-05-01T00:13:09.928Z,21.30
2023-05-01T00:15:36.942Z,23.80
2023-05-01T00:18:03.998Z,23.90
2023-05-01T00:20:31.259Z,27.40
2023-05-01T00:22:58.203Z,29.20
2023-05-01T00:25:25.196Z,28.60
2023-05-01T00:27:52.122Z,29.30
2023-05-01T00:30:19.188Z,27.60
2023-05-01T00:32:46.230Z,28.50
2023-05-01T00:35:13.638Z,26.60
2023-05-01T00:37:40.690Z,28.00
2023-05-01T00:40:08.623Z,26.40
2023-05-01T00:42:39.644Z,29.60
2023-05-01T00:45:07.783Z,27.30
2023-05-01T00:47:38.152Z,28.10
2023-05-01T00:50:06.092Z,24.80
2023-05-01T00:52:33.108Z,27.80
2023-05-01T00:55:00.265Z,26.80
2023-05-01T00:57:27.644Z,26.90
2023-05-01T00:59:54.796Z,29.00
2023-05-01T01:02:22.554Z,29.40
2023-05-01T01:04:49.652Z,30.90
2023-05-01T01:07:25.161Z,26.90
2023-05-01T01:10:06.409Z,28.60
2023-05-01T01:12:49.263Z,25.80
2023-05-01T01:15:48.162Z,28.10
2023-05-01T01:18:25.436Z,29.20
2023-05-01T01:21:11.643Z,27.20
2023-05-01T01:24:05.196Z,31.30
2023-05-01T01:27:02.441Z,26.70
2023-05-01T01:29:51.667Z,27.40
2023-05-01T01:32:21.630Z,26.40
2023-05-01T01:34:50.929Z,27.70
2023-05-01T01:37:19.934Z,28.50
2023-05-01T01:39:53.896Z,25.60
2023-05-01T01:42:26.882Z,26.60
2023-05-01T01:45:03.192Z,26.90
2023-05-01T01:47:32.356Z,29.80
2023-05-01T01:50:04.529Z,27.20
2023-05-01T01:52:31.849Z,26.50
2023-05-01T01:55:11.439Z,26.50
2023-05-01T01:57:39.928Z,24.40
2023-05-01T02:00:09.136Z,25.20
2023-05-01T02:02:40.415Z,25.40
2023-05-01T02:05:07.695Z,26.00
2023-05-01T02:07:35.933Z,24.70
2023-05-01T02:10:04.706Z,23.30
2023-05-01T02:12:31.932Z,23.50
2023-05-01T02:14:59.086Z,23.20
2023-05-01T02:17:27.632Z,23.30
2023-05-01T02:19:55.450Z,22.70
2023-05-01T02:22:23.001Z,25.60
2023-05-01T02:24:50.171Z,23.00
2023-05-01T02:27:23.196Z,20.60
2023-05-01T02:29:52.372Z,20.10
2023-05-01T02:32:20.188Z,18.70
2023-05-01T02:34:47.290Z,20.10
2023-05-01T02:37:14.267Z,14.70
2023-05-01T02:39:41.368Z,17.90
2023-05-01T02:42:09.712Z,16.70
2023-05-01T02:44:47.113Z,15.30
2023-05-01T02:47:16.967Z,13.80
2023-05-01T02:49:44.978Z,15.90
2023-05-01T02:52:12.123Z,13.60
2023-05-01T02:54:39.261Z,12.90
2023-05-01T02:57:06.258Z,10.30
2023-05-01T02:59:34.065Z,9.40
2023-05-01T03:02:01.365Z,10.80
2023-05-01T03:04:28.441Z,12.70
2023-05-01T03:06:55.886Z,10.50
2023-05-01T03:09:22.935Z,9.10
2023-05-01T03:11:49.922Z,7.80
2023-05-01T03:14:17.069Z,7.10
2023-05-01T03:16:44.610Z,10.10
2023-05-01T03:19:11.612Z,7.10
2023-05-01T03:21:38.504Z,10.30
2023-05-01T03:24:06.288Z,8.00
2023-05-01T03:26:33.655Z,11.00
2023-05-01T03:29:00.670Z,6.50
2023-05-01T03:31:27.675Z,6.40
2023-05-01T03:33:55.967Z,10.30
2023-05-01T03:36:23.054Z,8.10
2023-05-01T03:38:50.411Z,8.00
2023-05-01T03:41:36.196Z,9.00
2023-05-01T03:44:19.732Z,5.40
2023-05-01T03:46:47.368Z,8.50
2023-05-01T03:49:19.905Z,9.10
2023-05-01T03:51:48.220Z,9.40
2023-05-01T03:54:15.307Z,7.50
2023-05-01T03:56:53.306Z,6.50
2023-05-01T03:59:20.489Z,8.50
2023-05-01T04:01:47.548Z,8.20
2023-05-01T04:04:14.774Z,11.60
2023-05-01T04:06:45.393Z,9.30
2023-05-01T04:09:12.952Z,9.30
2023-05-01T04:11:39.892Z,7.90
2023-05-01T04:14:06.880Z,8.40
2023-05-01T04:16:34.205Z,7.70
2023-05-01T04:19:01.409Z,9.40
2023-05-01T04:21:29.477Z,10.00
2023-05-01T04:23:56.439Z,11.50
2023-05-01T04:26:23.822Z,12.60
2023-05-01T04:28:51.058Z,8.10
2023-05-01T04:31:21.649Z,6.50
2023-05-01T04:33:48.714Z,7.50
2023-05-01T04:36:15.697Z,5.00
2023-05-01T04:38:44.333Z,7.60
2023-05-01T04:41:11.679Z,8.90
2023-05-01T04:43:38.672Z,7.10
2023-05-01T04:46:06.289Z,8.20
2023-05-01T04:48:33.349Z,11.30
2023-05-01T04:51:00.375Z,9.20
2023-05-01T04:53:29.361Z,10.90
2023-05-01T04:55:57.047Z,11.30
2023-05-01T04:58:24.778Z,11.00
2023-05-01T05:00:56.677Z,10.60
2023-05-01T05:03:23.908Z,5.30
2023-05-01T05:05:51.244Z,7.40
2023-05-01T05:08:18.250Z,11.20
2023-05-01T05:10:59.026Z,9.50
2023-05-01T05:13:30.578Z,9.50
2023-05-01T05:16:02.168Z,8.70
2023-05-01T05:18:29.221Z,30.20
2023-05-01T05:20:56.627Z,9.10
2023-05-01T05:23:24.490Z,21.40
2023-05-01T05:25:51.656Z,10.10
2023-05-01T05:28:19.974Z,19.10
2023-05-01T05:30:47.500Z,12.20
2023-05-01T05:33:16.759Z,30.50
2023-05-01T05:35:43.689Z,7.70
2023-05-01T05:38:10.700Z,9.10
2023-05-01T05:40:39.065Z,6.30
2023-05-01T05:43:06.205Z,7.40
2023-05-01T05:45:34.559Z,4.30
2023-05-01T05:48:01.954Z,6.80
2023-05-01T05:50:30.079Z,7.00
2023-05-01T05:52:57.794Z,7.40
2023-05-01T05:55:25.290Z,7.00
2023-05-01T05:58:03.069Z,7.40
2023-05-01T06:00:30.305Z,7.30
2023-05-01T06:03:00.450Z,11.20
2023-05-01T06:05:28.953Z,6.80
2023-05-01T06:07:56.721Z,13.20
2023-05-01T06:10:24.743Z,3.10
2023-05-01T06:12:55.071Z,7.20
2023-05-01T06:15:28.066Z,51.80
2023-05-01T06:17:55.102Z,11.10
2023-05-01T06:20:22.609Z,5.20
2023-05-01T06:22:50.688Z,6.80
2023-05-01T06:25:30.178Z,8.10
2023-05-01T06:27:57.150Z,16.10
2023-05-01T06:30:24.471Z,14.10
2023-05-01T06:32:51.552Z,6.40
2023-05-01T06:35:19.577Z,2.50
2023-05-01T06:37:46.554Z,14.10
2023-05-01T06:40:13.655Z,3.20
2023-05-01T06:42:42.286Z,6.80
2023-05-01T06:45:09.353Z,3.20
2023-05-01T06:47:36.475Z,3.60
2023-05-01T06:50:05.762Z,6.10
2023-05-01T06:52:33.981Z,9.70
2023-05-01T06:55:01.438Z,3.20
2023-05-01T06:57:28.504Z,7.00
2023-05-01T06:59:55.844Z,15.70
2023-05-01T07:02:23.135Z,6.00
2023-05-01T07:04:50.294Z,7.40
2023-05-01T07:07:17.284Z,4.20
2023-05-01T07:09:44.765Z,2.20
2023-05-01T07:12:12.515Z,5.80
2023-05-01T07:14:39.457Z,6.60
2023-05-01T07:17:07.010Z,3.70
2023-05-01T07:19:36.516Z,4.70
2023-05-01T07:22:04.917Z,3.40
2023-05-01T07:24:32.217Z,7.20
2023-05-01T07:27:00.157Z,16.90
2023-05-01T07:29:27.213Z,11.50
2023-05-01T07:31:54.299Z,3.40
2023-05-01T07:34:21.612Z,4.10
2023-05-01T07:36:48.576Z,7.80
2023-05-01T07:39:17.688Z,11.10
2023-05-01T07:41:44.732Z,2.80
2023-05-01T07:44:11.671Z,8.60
2023-05-01T07:46:38.802Z,5.90
2023-05-01T07:49:06.214Z,12.20
2023-05-01T07:51:33.540Z,3.90
2023-05-01T07:54:04.770Z,15.80
2023-05-01T07:56:32.086Z,5.10
2023-05-01T07:58:59.616Z,12.80
2023-05-01T08:01:26.676Z,6.40
2023-05-01T08:03:53.887Z,3.00
2023-05-01T08:06:20.913Z,2.80
2023-05-01T08:08:47.913Z,1.30
2023-05-01T08:11:15.151Z,4.00
2023-05-01T08:13:42.153Z,13.70
2023-05-01T08:16:09.309Z,5.90
2023-05-01T08:18:36.436Z,6.30
2023-05-01T08:21:03.584Z,7.90
2023-05-01T08:23:30.771Z,10.90
2023-05-01T08:25:58.170Z,2.40
2023-05-01T08:28:25.213Z,6.70
2023-05-01T08:30:53.163Z,5.10
2023-05-01T08:33:20.252Z,7.90
2023-05-01T08:35:47.301Z,6.40
2023-05-01T08:38:14.237Z,2.10
2023-05-01T08:40:41.316Z,4.90
2023-05-01T08:43:08.354Z,3.60
2023-05-01T08:45:37.832Z,5.30
2023-05-01T08:48:09.264Z,4.50
2023-05-01T08:50:39.084Z,2.90
2023-05-01T08:53:06.582Z,5.80
2023-05-01T08:55:33.982Z,3.50
2023-05-01T08:58:01.270Z,1.90
2023-05-01T09:00:28.209Z,2.70
2023-05-01T09:02:55.471Z,2.10
2023-05-01T09:05:22.482Z,5.10
2023-05-01T09:07:50.157Z,3.70
2023-05-01T09:10:19.218Z,7.30
2023-05-01T09:12:49.290Z,4.80
2023-05-01T09:15:16.248Z,8.20
2023-05-01T09:17:44.243Z,6.50
2023-05-01T09:20:11.925Z,7.30
2023-05-01T09:22:38.918Z,1.20
2023-05-01T09:25:06.601Z,5.10
2023-05-01T09:27:37.693Z,5.70
2023-05-01T09:30:06.768Z,10.40
2023-05-01T09:32:33.831Z,7.70
2023-05-01T09:35:14.347Z,1.30
2023-05-01T09:37:41.459Z,5.00
2023-05-01T09:40:10.221Z,6.40
2023-05-01T09:42:41.020Z,5.30
2023-05-01T09:45:16.215Z,10.50
2023-05-01T09:47:44.099Z,2.90
2023-05-01T09:50:31.758Z,4.30
2023-05-01T09:53:00.397Z,2.90
2023-05-01T09:55:27.673Z,7.10
2023-05-01T09:57:54.880Z,14.30
2023-05-01T10:00:23.198Z,6.60
2023-05-01T10:02:50.948Z,5.50
2023-05-01T10:05:18.778Z,5.00
2023-05-01T10:08:00.064Z,3.20
2023-05-01T10:10:27.978Z,3.70
2023-05-01T10:12:55.507Z,2.90
2023-05-01T10:15:26.708Z,3.10
2023-05-01T10:17:54.743Z,9.80
2023-05-01T10:20:22.250Z,8.10
2023-05-01T10:22:49.865Z,7.20
2023-05-01T10:25:17.106Z,3.50
2023-05-01T10:27:44.177Z,4.60
2023-05-01T10:30:13.223Z,4.20
2023-05-01T10:32:41.717Z,3.80
2023-05-01T10:35:14.018Z,4.10
2023-05-01T10:37:51.926Z,5.00
2023-05-01T10:40:37.872Z,3.50
2023-05-01T10:43:16.069Z,2.20
2023-05-01T10:45:47.227Z,2.50
2023-05-01T10:48:39.614Z,3.70
2023-05-01T10:51:14.416Z,6.90
2023-05-01T10:53:42.106Z,3.40
2023-05-01T10:56:38.460Z,3.00
2023-05-01T10:59:06.155Z,10.60
2023-05-01T11:01:37.904Z,3.70
2023-05-01T11:04:08.473Z,3.70
2023-05-01T11:06:36.632Z,1.70
2023-05-01T11:09:58.898Z,5.40
2023-05-01T11:12:45.059Z,4.00
2023-05-01T11:15:13.835Z,4.70
2023-05-01T11:17:43.878Z,1.70
2023-05-01T11:20:11.506Z,4.00
2023-05-01T11:22:45.975Z,4.50
2023-05-01T11:25:31.157Z,2.60
2023-05-01T11:27:59.135Z,5.00
2023-05-01T11:30:26.276Z,5.70
2023-05-01T11:32:53.285Z,2.90
2023-05-01T11:35:26.617Z,3.10
2023-05-01T11:37:55.987Z,2.70
2023-05-01T11:40:24.160Z,4.10
2023-05-01T11:42:51.995Z,3.80
2023-05-01T11:45:19.500Z,8.40
2023-05-01T11:47:46.557Z,7.50
2023-05-01T11:50:13.672Z,2.40
2023-05-01T11:52:53.014Z,7.50
2023-05-01T11:55:20.693Z,5.30
2023-05-01T11:57:53.861Z,4.80
2023-05-01T12:00:28.098Z,3.20
2023-05-01T12:02:59.374Z,6.60
2023-05-01T12:05:27.701Z,6.50
2023-05-01T12:08:23.690Z,7.20
2023-05-01T12:10:52.777Z,9.00
2023-05-01T12:13:19.860Z,3.40
2023-05-01T12:15:48.276Z,3.90
2023-05-01T12:18:16.291Z,13.80
2023-05-01T12:20:48.875Z,1.90
2023-05-01T12:23:17.054Z,3.90
2023-05-01T12:25:45.029Z,3.80
2023-05-01T12:28:18.565Z,3.70
2023-05-01T12:30:46.477Z,5.10
2023-05-01T12:33:15.985Z,3.30
2023-05-01T12:35:49.215Z,5.90
2023-05-01T12:40:56.829Z,6.40
2023-05-01T12:43:31.567Z,4.10
2023-05-01T12:45:58.701Z,5.30
2023-05-01T12:48:25.898Z,3.20
2023-05-01T12:50:55.908Z,5.30
2023-05-01T12:53:23.865Z,4.20
2023-05-01T12:55:52.506Z,3.10
2023-05-01T12:58:19.640Z,3.80
2023-05-01T13:00:53.832Z,2.50
2023-05-01T13:03:30.308Z,3.20
2023-05-01T13:05:58.941Z,8.50
2023-05-01T13:08:46.305Z,4.00
2023-05-01T13:11:16.923Z,4.50
2023-05-01T13:13:44.882Z,4.50
2023-05-01T13:16:13.295Z,4.50
2023-05-01T13:18:47.522Z,4.00
2023-05-01T13:21:19.956Z,5.40
2023-05-01T13:23:57.662Z,3.00
2023-05-01T13:26:32.859Z,7.80
2023-05-01T13:29:02.090Z,7.10
2023-05-01T13:31:29.335Z,7.00
2023-05-01T13:33:58.436Z,5.50
2023-05-01T13:36:27.508Z,8.90
2023-05-01T13:38:56.419Z,8.20
2023-05-01T13:41:25.911Z,3.60
2023-05-01T13:43:54.136Z,3.20
2023-05-01T13:46:22.058Z,2.60
2023-05-01T13:48:49.419Z,2.40
2023-05-01T13:51:24.193Z,6.40
2023-05-01T13:53:53.696Z,5.90
2023-05-01T13:56:22.014Z,16.10
2023-05-01T13:58:51.123Z,6.40
2023-05-01T14:01:20.898Z,5.30
2023-05-01T14:03:48.718Z,3.40
2023-05-01T14:06:18.024Z,3.40
2023-05-01T14:08:46.436Z,5.10
2023-05-01T14:11:13.465Z,5.00
2023-05-01T14:13:41.176Z,3.20
2023-05-01T14:16:12.378Z,5.40
2023-05-01T14:18:44.705Z,2.40
2023-05-01T14:21:12.928Z,3.30
2023-05-01T14:23:42.334Z,4.40
2023-05-01T14:26:09.924Z,5.10
2023-05-01T14:28:44.790Z,6.40
2023-05-01T14:31:25.403Z,3.20
2023-05-01T14:33:55.383Z,3.50
2023-05-01T14:36:23.089Z,6.90
2023-05-01T14:38:50.873Z,3.00
2023-05-01T14:41:19.749Z,5.10
2023-05-01T14:43:47.119Z,4.10
2023-05-01T14:46:17.696Z,5.50
2023-05-01T14:48:44.843Z,2.20
2023-05-01T14:51:12.811Z,4.00
2023-05-01T14:53:42.092Z,5.40
2023-05-01T14:56:09.255Z,5.00
2023-05-01T14:58:36.491Z,3.50
2023-05-01T15:01:03.598Z,3.10
2023-05-01T15:03:30.836Z,2.40
2023-05-01T15:05:58.760Z,3.80
2023-05-01T15:08:25.946Z,5.00
2023-05-01T15:10:53.049Z,8.20
2023-05-01T15:13:21.345Z,8.30
2023-05-01T15:15:48.411Z,10.20
2023-05-01T15:18:15.510Z,4.40
2023-05-01T15:20:44.114Z,8.80
2023-05-01T15:23:11.861Z,3.90
2023-05-01T15:25:38.905Z,3.70
2023-05-01T15:28:06.033Z,5.70
2023-05-01T15:30:33.308Z,5.60
2023-05-01T15:33:00.698Z,3.70
2023-05-01T15:35:29.923Z,1.80
2023-05-01T15:37:57.783Z,3.40
2023-05-01T15:40:25.540Z,5.00
2023-05-01T15:42:53.518Z,4.20
2023-05-01T15:45:20.744Z,7.40
2023-05-01T15:47:47.770Z,4.30
2023-05-01T15:50:14.828Z,4.70
2023-05-01T15:52:41.989Z,6.50
2023-05-01T15:55:09.167Z,3.60
2023-05-01T15:57:36.217Z,3.30
2023-05-01T16:00:04.786Z,2.30
2023-05-01T16:02:33.196Z,4.90
2023-05-01T16:05:01.200Z,3.90
2023-05-01T16:07:29.284Z,3.90
2023-05-01T16:09:57.452Z,4.70
2023-05-01T16:12:24.802Z,4.20
2023-05-01T16:14:52.188Z,6.30
2023-05-01T16:17:19.832Z,4.70
2023-05-01T16:19:47.243Z,3.70
2023-05-01T16:22:14.688Z,4.80
2023-05-01T16:24:42.449Z,3.40
2023-05-01T16:27:13.314Z,4.10
2023-05-01T16:29:40.970Z,3.10
2023-05-01T16:32:11.385Z,4.50
2023-05-01T16:34:39.415Z,2.80
2023-05-01T16:37:06.611Z,4.50
2023-05-01T16:39:36.117Z,3.30
2023-05-01T16:42:03.312Z,6.00
2023-05-01T16:44:30.370Z,9.30
2023-05-01T16:46:59.430Z,13.50
2023-05-01T16:49:27.716Z,15.40
2023-05-01T16:51:57.381Z,19.90
2023-05-01T16:54:25.248Z,15.80
2023-05-01T16:56:52.210Z,11.10
2023-05-01T16:59:19.262Z,8.40
2023-05-01T17:01:46.375Z,10.60
2023-05-01T17:04:14.486Z,10.60
2023-05-01T17:06:42.006Z,6.40
2023-05-01T17:09:09.101Z,10.70
2023-05-01T17:11:36.187Z,9.20
2023-05-01T17:14:03.752Z,8.80
2023-05-01T17:16:32.522Z,8.80
2023-05-01T17:18:59.642Z,10.80
2023-05-01T17:21:27.391Z,16.50
2023-05-01T17:23:54.940Z,15.50
2023-05-01T17:26:22.971Z,16.10
2023-05-01T17:28:50.732Z,15.30
2023-05-01T17:31:19.340Z,11.10
2023-05-01T17:33:48.515Z,10.60
2023-05-01T17:36:15.799Z,12.40
2023-05-01T17:38:42.914Z,13.40
2023-05-01T17:41:09.878Z,16.10
2023-05-01T17:43:36.948Z,16.60
2023-05-01T17:46:05.141Z,11.10
2023-05-01T17:48:32.164Z,15.40
2023-05-01T17:50:59.353Z,15.40
2023-05-01T17:53:26.411Z,15.40
2023-05-01T17:55:53.495Z,17.10
2023-05-01T17:58:21.189Z,20.50
2023-05-01T18:00:48.682Z,18.70
2023-05-01T18:03:16.056Z,22.10
2023-05-01T18:05:44.432Z,21.00
2023-05-01T18:08:11.512Z,26.50
2023-05-01T18:10:38.608Z,19.30
2023-05-01T18:13:05.633Z,14.40
2023-05-01T18:15:33.421Z,21.80
2023-05-01T18:18:00.492Z,23.50
2023-05-01T18:20:29.080Z,20.70
2023-05-01T18:22:56.101Z,26.20
2023-05-01T18:25:23.302Z,19.50
2023-05-01T18:27:50.905Z,23.60
2023-05-01T18:30:18.010Z,25.30
2023-05-01T18:32:48.773Z,20.70
2023-05-01T18:35:17.834Z,23.40
2023-05-01T18:37:45.130Z,20.50
2023-05-01T18:40:12.907Z,22.30
2023-05-01T18:42:41.163Z,20.00
2023-05-01T18:45:10.001Z,19.70
2023-05-01T18:47:37.126Z,22.30
2023-05-01T18:50:06.304Z,23.70
2023-05-01T18:52:33.474Z,22.70
2023-05-01T18:55:00.455Z,21.30
2023-05-01T18:57:28.977Z,21.80
2023-05-01T18:59:56.057Z,21.00
2023-05-01T19:02:23.281Z,23.80
2023-05-01T19:04:57.369Z,32.60
2023-05-01T19:07:26.572Z,41.80
2023-05-01T19:09:53.949Z,40.90
2023-05-01T19:12:21.153Z,52.30
2023-05-01T19:14:49.069Z,57.00
2023-05-01T19:17:16.201Z,61.50
2023-05-01T19:19:43.253Z,78.60
2023-05-01T19:22:10.434Z,103.00
2023-05-01T19:24:37.496Z,181.50
2023-05-01T19:27:04.500Z,233.30
2023-05-01T19:29:31.922Z,279.10
2023-05-01T19:32:01.882Z,340.40
2023-05-01T19:34:30.093Z,385.90
2023-05-01T19:36:59.495Z,359.40
2023-05-01T19:39:26.687Z,380.10
2023-05-01T19:41:54.081Z,394.30
2023-05-01T19:44:21.859Z,401.10
2023-05-01T19:46:49.165Z,370.70
2023-05-01T19:49:16.168Z,361.60
2023-05-01T19:51:43.281Z,341.30
2023-05-01T19:54:10.394Z,320.20
2023-05-01T19:56:41.035Z,300.50
2023-05-01T19:59:07.975Z,278.00
2023-05-01T20:01:35.006Z,248.00
2023-05-01T20:04:02.636Z,208.20
2023-05-01T20:06:29.639Z,183.50
2023-05-01T20:08:56.673Z,157.20
2023-05-01T20:11:23.746Z,141.10
2023-05-01T20:13:51.433Z,116.20
2023-05-01T20:16:18.666Z,98.20
2023-05-01T20:18:45.737Z,90.20
2023-05-01T20:21:12.761Z,74.60
2023-05-01T20:23:40.342Z,83.20
2023-05-01T20:26:07.456Z,85.60
2023-05-01T20:28:34.404Z,77.50
2023-05-01T20:31:01.837Z,60.80
2023-05-01T20:33:29.089Z,57.60
2023-05-01T20:35:56.043Z,53.90
2023-05-01T20:38:24.417Z,47.40
2023-05-01T20:40:51.822Z,46.20
2023-05-01T20:43:19.729Z,46.50
2023-05-01T20:45:46.873Z,54.40
2023-05-01T20:48:13.872Z,49.80
2023-05-01T20:50:43.763Z,46.60
2023-05-01T20:53:10.876Z,41.70
2023-05-01T20:55:37.792Z,42.00
2023-05-01T20:58:04.784Z,45.60
2023-05-01T21:00:31.670Z,38.60
2023-05-01T21:02:59.965Z,38.60
2023-05-01T21:05:27.284Z,41.40
2023-05-01T21:07:54.215Z,42.50
2023-05-01T21:10:21.282Z,37.80
2023-05-01T21:12:48.335Z,36.70
2023-05-01T21:15:15.404Z,36.60
2023-05-01T21:17:43.547Z,37.10
2023-05-01T21:20:30.261Z,36.30
2023-05-01T21:22:57.293Z,35.70
2023-05-01T21:25:27.055Z,39.20
2023-05-01T21:27:54.168Z,79.10
2023-05-01T21:30:33.674Z,66.90
2023-05-01T21:33:01.864Z,81.10
2023-05-01T21:35:29.930Z,69.50
2023-05-01T21:37:57.764Z,72.50
2023-05-01T21:40:25.142Z,74.60
2023-05-01T21:42:56.489Z,66.70
2023-05-01T21:45:23.644Z,62.00
2023-05-01T21:47:51.144Z,60.70
2023-05-01T21:50:19.562Z,58.10
2023-05-01T21:52:47.863Z,51.00
2023-05-01T21:55:20.048Z,54.40
2023-05-01T21:57:47.112Z,54.80
2023-05-01T22:00:15.868Z,56.70
2023-05-01T22:02:44.824Z,46.70
2023-05-01T22:05:13.601Z,49.20
2023-05-01T22:07:41.356Z,46.50
2023-05-01T22:10:09.618Z,43.90
2023-05-01T22:12:36.761Z,38.50
2023-05-01T22:15:04.060Z,43.20
2023-05-01T22:17:31.141Z,39.00
2023-05-01T22:19:58.372Z,38.30
2023-05-01T22:22:25.578Z,36.60
2023-05-01T22:24:52.993Z,32.80
2023-05-01T22:27:19.974Z,35.60
2023-05-01T22:29:46.936Z,37.40
2023-05-01T22:32:14.028Z,32.30
2023-05-01T22:34:41.013Z,30.00
2023-05-01T22:37:08.332Z,34.10
2023-05-01T22:39:36.477Z,32.80
2023-05-01T22:42:05.497Z,29.40
2023-05-01T22:44:33.365Z,27.70
2023-05-01T22:47:00.529Z,28.30
2023-05-01T22:49:32.104Z,27.50
2023-05-01T22:51:59.889Z,27.90
2023-05-01T22:54:29.520Z,26.50
2023-05-01T22:56:56.643Z,26.30
2023-05-01T22:59:23.698Z,28.60
2023-05-01T23:01:50.871Z,27.50
2023-05-01T23:04:18.142Z,26.30
2023-05-01T23:06:45.823Z,25.30
2023-05-01T23:09:12.918Z,25.10
2023-05-01T23:11:40.588Z,27.30
2023-05-01T23:14:07.600Z,27.70
2023-05-01T23:16:41.566Z,27.50
2023-05-01T23:19:20.360Z,25.80
2023-05-01T23:21:47.731Z,24.80
2023-05-01T23:24:19.445Z,24.60
2023-05-01T23:26:46.565Z,24.70
2023-05-01T23:29:13.838Z,24.10
2023-05-01T23:31:46.647Z,25.30
2023-05-01T23:36:46.703Z,22.40
2023-05-01T23:39:13.998Z,24.20
2023-05-01T23:41:41.002Z,22.00
2023-05-01T23:44:08.078Z,23.70
2023-05-01T23:46:35.614Z,24.70
2023-05-01T23:49:02.571Z,24.50
2023-05-01T23:51:29.758Z,27.30
2023-05-01T23:53:56.866Z,27.30
2023-05-01T23:56:23.874Z,22.10
2023-05-01T23:58:50.838Z,22.00
